Linkwood, Maryland
Current Conditions -  °F | °C
As of 4:34 AM on Friday 24 Oct 2014 (Local Time) from KCGE Reporting Station
Overcast Overcast  
Wind Chill: 15°   Ceiling: 4800
Heat Index: 15°   Visibility: 10mi
Dew Point:   Wind: 10mph
Humidity: 55%   Direction: 310°NW
Pressure: 29.88"   Gusts: 17mph
Location:  38.54°N, 75.95°W
Report Text: KCGE 240834Z AUTO 31009G15KT 10SM OVC048 15/06 A2988 RMK AO1
Loading
Personal Weather Stations






























Interactive Weather Map
Tropical Storm Tracking
New forecast layout! Learn more

10-Day Weather Forecast

Advertisements
Track Severe Weather on mobile